This demonstration page uses our WeatherBlox Daily Observations layout. Learn more.

Hourly Observations for January 1, 2017

Temp ( °F °C ) Dew Point ( °F °C ) Humidity (%) Winds ( mph kmh ) Pressure ( in mb ) Visibility ( mi km ) Precip ( " mm )
12:54 am 00:54 Clear 22 -5.6 17 -8.3 82 82 SE 3 6 29.98 1015 10 16.0934 0 0
1:54 am 01:54 Clear 19 -7.2 15 -9.4 84 84 Calm 29.97 1015 10 16.0934 0 0
2:54 am 02:54 Clear 20 -6.7 15 -9.4 81 81 S 5 7 29.99 1016 10 16.0934 0 0
3:54 am 03:54 Clear 18 -7.8 15 -9.4 88 88 S 5 7 29.98 1015 10 16.0934 0 0
4:54 am 04:54 Clear 20 -6.7 16 -8.9 85 85 S 5 7 29.98 1015 10 16.0934 0 0
5:54 am 05:54 Clear 20 -6.7 16 -8.9 85 85 S 5 7 29.99 1016 10 16.0934 0 0
6:54 am 06:54 Clear 22 -5.6 18 -7.8 85 85 Calm 30 1016 10 16.0934 0 0
7:54 am 07:54 Sunny 25 -3.9 20 -6.7 81 81 ESE 6 9 30 1016 10 16.0934 0 0
8:54 am 08:54 Partly Cloudy 27 -2.8 22 -5.6 81 81 SSE 6 9 30.01 1016 10 16.0934 0 0
9:54 am 09:54 Cloudy 29 -1.7 23 -5 78 78 Calm 30.02 1017 9 14.48406 0 0
10:54 am 10:54 Mostly Sunny 33 0.6 26 -3.3 75 75 S 13 20 30.04 1017 9 14.48406 0 0
11:54 am 11:54 Mostly Sunny 36 2.2 25 -3.9 64 64 S 9 15 30.01 1016 10 16.0934 0 0
12:54 pm 12:54 Cloudy 36 2.2 24 -4.4 62 62 SSE 7 11 29.96 1015 10 16.0934 0 0
1:54 pm 13:54 Cloudy 39 3.9 24 -4.4 55 55 VRB 5 7 29.94 1014 10 16.0934 0 0
2:54 pm 14:54 Mostly Cloudy 40 4.4 20 -6.7 45 45 SE 8 13 29.93 1013 10 16.0934 0 0
3:54 pm 15:54 Cloudy 39 3.9 19 -7.2 45 45 ESE 8 13 29.91 1013 10 16.0934 0 0
4:54 pm 16:54 Cloudy 38 3.3 23 -5 55 55 E 12 19 29.9 1013 10 16.0934 0 0
5:54 pm 17:54 Clear 28 -2 16 -9 59 59 Calm 29.97 1015 10 16.0934 0 0
6:54 pm 18:54 Cloudy 37 2.8 23 -5 57 57 E 12 19 29.9 1013 10 16.0934 0 0
7:54 pm 19:54 Cloudy 37 2.8 23 -5 57 57 ESE 10 17 29.89 1012 10 16.0934 0 0
8:54 pm 20:54 Cloudy 37 2.8 24 -4.4 59 59 SE 12 19 29.9 1013 10 16.0934 0 0
9:54 pm 21:54 Cloudy 37 2.8 25 -3.9 62 62 SE 12 19 29.91 1013 10 16.0934 0 0
10:54 pm 22:54 Cloudy 37 2.8 26 -3.3 65 65 SE 10 17 29.89 1012 10 16.0934 0 0
11:54 pm 23:54 Cloudy 37 2.8 27 -2.8 67 67 SE 9 15 29.9 1012 10 16.0934 0 0

Powered by AerisWeather